IGO301 VABB-VTSP
Flight info
| Callsign | IGO301 |
|---|---|
| Flight time | 3h 47m |
| Altitude | 34000 |
| Route | VABB/27 N0449F370 VEVA2A PPN W28 HIA L518 DUMAR/N0448F390 P761 LEGIN L510 IDKUT L645 UBNEN UBNE1C VTSP/09 |
| Aircraft | A321/M-SDFGHIRWY/C |
Departure
| Time | 2026-04-27 06:34 |
|---|---|
| Airport | Chhatrapati Shivaji Maharaj International Airport (VABB) |
Arrival
| Time | 2026-04-27 10:21 |
|---|---|
| Airport | Phuket International Airport (VTSP) |
| Time | Latitude | Longitude | Altitude | Speed | Heading |
|---|---|---|---|---|---|
| 2026-04-27 06:15 | 19.09229 | 72.86876 | 35 ft | 0 kts | 224° |
| 2026-04-27 06:26 | 19.09232 | 72.86879 | 36 ft | 3 kts | 224° |
| 2026-04-27 06:26 | 19.09246 | 72.86893 | 36 ft | 3 kts | 224° |
| 2026-04-27 06:26 | 19.09259 | 72.86907 | 35 ft | 3 kts | 224° |
| 2026-04-27 06:27 | 19.09273 | 72.86921 | 34 ft | 3 kts | 224° |
| 2026-04-27 06:27 | 19.09287 | 72.86933 | 33 ft | 3 kts | 216° |
| 2026-04-27 06:27 | 19.09304 | 72.86938 | 35 ft | 3 kts | 154° |
| 2026-04-27 06:27 | 19.09310 | 72.86934 | 35 ft | 0 kts | 139° |
| 2026-04-27 06:29 | 19.09303 | 72.86941 | 35 ft | 5 kts | 139° |
| 2026-04-27 06:30 | 19.09271 | 72.86972 | 36 ft | 7 kts | 136° |
| 2026-04-27 06:30 | 19.09238 | 72.87027 | 36 ft | 13 kts | 108° |
| 2026-04-27 06:30 | 19.09236 | 72.87122 | 37 ft | 15 kts | 88° |
| 2026-04-27 06:30 | 19.09233 | 72.87225 | 37 ft | 8 kts | 116° |
| 2026-04-27 06:31 | 19.09155 | 72.87265 | 37 ft | 15 kts | 176° |
| 2026-04-27 06:31 | 19.09063 | 72.87300 | 38 ft | 14 kts | 109° |
| 2026-04-27 06:31 | 19.09056 | 72.87441 | 38 ft | 29 kts | 88° |
| 2026-04-27 06:31 | 19.09056 | 72.87664 | 39 ft | 30 kts | 92° |
| 2026-04-27 06:32 | 19.09057 | 72.87888 | 41 ft | 30 kts | 86° |
| 2026-04-27 06:32 | 19.09047 | 72.88035 | 42 ft | 16 kts | 128° |
| 2026-04-27 06:32 | 19.08939 | 72.88048 | 40 ft | 16 kts | 197° |
| 2026-04-27 06:32 | 19.08894 | 72.88015 | 39 ft | 4 kts | 234° |
| 2026-04-27 06:33 | 19.08876 | 72.87988 | 40 ft | 4 kts | 241° |
| 2026-04-27 06:33 | 19.08878 | 72.87969 | 40 ft | 3 kts | 280° |
| 2026-04-27 06:33 | 19.08887 | 72.87925 | 40 ft | 13 kts | 277° |
| 2026-04-27 06:33 | 19.08891 | 72.87791 | 40 ft | 39 kts | 272° |
| 2026-04-27 06:34 | 19.08883 | 72.87402 | 40 ft | 92 kts | 269° |
| 2026-04-27 06:34 | 19.08865 | 72.86384 | 34 ft | 180 kts | 269° |
| 2026-04-27 06:34 | 19.08854 | 72.84959 | 633 ft | 204 kts | 269° |
| 2026-04-27 06:34 | 19.08815 | 72.83347 | 1185 ft | 235 kts | 267° |
| 2026-04-27 06:35 | 19.08773 | 72.81472 | 1632 ft | 275 kts | 268° |
| 2026-04-27 06:35 | 19.08725 | 72.79363 | 2061 ft | 294 kts | 269° |
| 2026-04-27 06:35 | 19.08675 | 72.77263 | 2654 ft | 279 kts | 271° |
| 2026-04-27 06:35 | 19.08636 | 72.75248 | 3217 ft | 275 kts | 269° |
| 2026-04-27 06:36 | 19.08171 | 72.73268 | 3770 ft | 284 kts | 246° |
| 2026-04-27 06:36 | 19.06867 | 72.71691 | 4347 ft | 293 kts | 215° |
| 2026-04-27 06:36 | 19.04930 | 72.71000 | 4914 ft | 300 kts | 183° |
| 2026-04-27 06:36 | 19.02889 | 72.71421 | 5490 ft | 302 kts | 156° |
| 2026-04-27 06:37 | 19.01002 | 72.72427 | 6074 ft | 304 kts | 150° |
| 2026-04-27 06:37 | 18.99159 | 72.73527 | 6626 ft | 304 kts | 150° |
| 2026-04-27 06:37 | 18.97254 | 72.74492 | 7193 ft | 305 kts | 164° |
| 2026-04-27 06:37 | 18.95146 | 72.74771 | 7756 ft | 306 kts | 179° |
| 2026-04-27 06:38 | 18.93010 | 72.74751 | 8341 ft | 308 kts | 181° |
| 2026-04-27 06:38 | 18.90873 | 72.74680 | 8927 ft | 307 kts | 182° |
| 2026-04-27 06:38 | 18.88743 | 72.74607 | 9458 ft | 306 kts | 181° |
| 2026-04-27 06:38 | 18.86624 | 72.74540 | 9961 ft | 304 kts | 181° |
| 2026-04-27 06:39 | 18.84508 | 72.74477 | 10436 ft | 304 kts | 181° |
| 2026-04-27 06:39 | 18.82414 | 72.74557 | 10925 ft | 307 kts | 171° |
| 2026-04-27 06:39 | 18.80372 | 72.75193 | 11413 ft | 308 kts | 154° |
| 2026-04-27 06:39 | 18.78618 | 72.76481 | 11924 ft | 309 kts | 136° |
| 2026-04-27 06:40 | 18.77345 | 72.78312 | 12432 ft | 313 kts | 117° |
| 2026-04-27 06:40 | 18.76607 | 72.80483 | 12960 ft | 318 kts | 106° |
| 2026-04-27 06:40 | 18.76104 | 72.82815 | 13505 ft | 334 kts | 102° |
| 2026-04-27 06:40 | 18.75709 | 72.85287 | 14008 ft | 348 kts | 100° |
| 2026-04-27 06:41 | 18.75349 | 72.87882 | 14373 ft | 365 kts | 99° |
| 2026-04-27 06:41 | 18.74976 | 72.90596 | 14684 ft | 381 kts | 99° |
| 2026-04-27 06:41 | 18.74572 | 72.93412 | 14990 ft | 395 kts | 100° |
| 2026-04-27 06:41 | 18.74133 | 72.96313 | 15286 ft | 404 kts | 100° |
| 2026-04-27 06:42 | 18.73670 | 72.99260 | 15598 ft | 409 kts | 101° |
| 2026-04-27 06:42 | 18.73192 | 73.02230 | 15917 ft | 413 kts | 101° |
| 2026-04-27 06:42 | 18.72709 | 73.05189 | 16226 ft | 415 kts | 101° |
| 2026-04-27 06:42 | 18.72215 | 73.08201 | 16547 ft | 418 kts | 101° |
| 2026-04-27 06:43 | 18.71717 | 73.11232 | 16885 ft | 420 kts | 101° |
| 2026-04-27 06:43 | 18.71216 | 73.14283 | 17263 ft | 423 kts | 101° |
| 2026-04-27 06:43 | 18.70712 | 73.17353 | 17673 ft | 426 kts | 101° |
| 2026-04-27 06:43 | 18.70205 | 73.20442 | 18084 ft | 428 kts | 101° |
| 2026-04-27 06:44 | 18.69694 | 73.23553 | 18471 ft | 430 kts | 101° |
| 2026-04-27 06:44 | 18.69183 | 73.26665 | 18830 ft | 431 kts | 101° |
| 2026-04-27 06:44 | 18.68672 | 73.29781 | 19190 ft | 431 kts | 101° |
| 2026-04-27 06:44 | 18.68165 | 73.32868 | 19550 ft | 432 kts | 101° |
| 2026-04-27 06:45 | 18.67649 | 73.35997 | 19924 ft | 433 kts | 101° |
| 2026-04-27 06:45 | 18.67131 | 73.39132 | 20317 ft | 435 kts | 101° |
| 2026-04-27 06:45 | 18.66610 | 73.42279 | 20690 ft | 437 kts | 101° |
| 2026-04-27 06:45 | 18.66086 | 73.45445 | 21082 ft | 440 kts | 101° |
| 2026-04-27 06:46 | 18.65558 | 73.48634 | 21467 ft | 442 kts | 102° |
| 2026-04-27 06:46 | 18.65026 | 73.51846 | 21877 ft | 445 kts | 102° |
| 2026-04-27 06:46 | 18.64491 | 73.55067 | 22285 ft | 448 kts | 102° |
| 2026-04-27 06:46 | 18.63952 | 73.58309 | 22693 ft | 451 kts | 102° |
| 2026-04-27 06:47 | 18.63409 | 73.61577 | 23108 ft | 454 kts | 102° |
| 2026-04-27 06:47 | 18.62862 | 73.64871 | 23524 ft | 457 kts | 102° |
| 2026-04-27 06:47 | 18.62310 | 73.68183 | 23871 ft | 460 kts | 102° |
| 2026-04-27 06:47 | 18.61761 | 73.71480 | 24219 ft | 464 kts | 102° |
| 2026-04-27 06:48 | 18.61201 | 73.74837 | 24569 ft | 467 kts | 102° |
| 2026-04-27 06:48 | 18.60636 | 73.78218 | 24930 ft | 469 kts | 102° |
| 2026-04-27 06:48 | 18.60068 | 73.81613 | 25291 ft | 471 kts | 102° |
| 2026-04-27 06:48 | 18.59497 | 73.85027 | 25621 ft | 475 kts | 102° |
| 2026-04-27 06:49 | 18.58900 | 73.88467 | 25927 ft | 477 kts | 105° |
| 2026-04-27 06:49 | 18.57985 | 73.91835 | 26232 ft | 477 kts | 114° |
| 2026-04-27 06:49 | 18.56770 | 73.95096 | 26542 ft | 479 kts | 116° |
| 2026-04-27 06:49 | 18.55452 | 73.98334 | 26849 ft | 482 kts | 117° |
| 2026-04-27 06:50 | 18.54068 | 74.01566 | 27175 ft | 485 kts | 118° |
| 2026-04-27 06:50 | 18.52650 | 74.04805 | 27499 ft | 488 kts | 119° |
| 2026-04-27 06:50 | 18.51238 | 74.08011 | 27819 ft | 491 kts | 119° |
| 2026-04-27 06:50 | 18.49799 | 74.11284 | 28147 ft | 493 kts | 119° |
| 2026-04-27 06:51 | 18.48359 | 74.14571 | 28480 ft | 496 kts | 119° |
| 2026-04-27 06:51 | 18.46914 | 74.17884 | 28811 ft | 498 kts | 119° |
| 2026-04-27 06:51 | 18.45467 | 74.21209 | 29153 ft | 500 kts | 119° |
| 2026-04-27 06:51 | 18.44016 | 74.24548 | 29502 ft | 502 kts | 119° |
| 2026-04-27 06:52 | 18.42562 | 74.27896 | 29850 ft | 503 kts | 119° |
| 2026-04-27 06:52 | 18.41102 | 74.31256 | 30154 ft | 505 kts | 119° |
| 2026-04-27 06:52 | 18.39640 | 74.34621 | 30450 ft | 505 kts | 119° |
| 2026-04-27 06:52 | 18.38176 | 74.37986 | 30738 ft | 505 kts | 119° |
| 2026-04-27 06:53 | 18.36733 | 74.41302 | 31040 ft | 504 kts | 120° |
| 2026-04-27 06:53 | 18.35255 | 74.44697 | 31343 ft | 503 kts | 120° |
| 2026-04-27 06:53 | 18.33816 | 74.47999 | 31649 ft | 502 kts | 120° |
| 2026-04-27 06:53 | 18.32360 | 74.51337 | 31960 ft | 501 kts | 120° |
| 2026-04-27 06:54 | 18.30906 | 74.54666 | 32268 ft | 500 kts | 120° |
| 2026-04-27 06:54 | 18.29452 | 74.57996 | 32589 ft | 500 kts | 120° |
| 2026-04-27 06:54 | 18.27998 | 74.61323 | 32849 ft | 499 kts | 120° |
| 2026-04-27 06:54 | 18.26546 | 74.64644 | 32891 ft | 497 kts | 121° |
| 2026-04-27 06:55 | 18.23671 | 74.71216 | 32898 ft | 498 kts | 120° |
| 2026-04-27 06:55 | 18.20790 | 74.77859 | 32896 ft | 498 kts | 120° |
| 2026-04-27 06:56 | 18.17918 | 74.84502 | 32895 ft | 498 kts | 120° |
| 2026-04-27 06:56 | 18.15043 | 74.91141 | 32896 ft | 498 kts | 120° |
| 2026-04-27 06:57 | 18.12187 | 74.97724 | 32895 ft | 498 kts | 120° |
| 2026-04-27 06:57 | 18.09304 | 75.04359 | 32896 ft | 498 kts | 120° |
| 2026-04-27 06:58 | 18.04983 | 75.14290 | 32893 ft | 498 kts | 120° |
| 2026-04-27 06:59 | 18.02101 | 75.20904 | 32881 ft | 498 kts | 120° |
| 2026-04-27 06:59 | 17.99212 | 75.27527 | 32892 ft | 498 kts | 120° |
| 2026-04-27 07:00 | 17.96325 | 75.34138 | 32874 ft | 498 kts | 120° |
| 2026-04-27 07:00 | 17.93451 | 75.40711 | 32886 ft | 498 kts | 120° |
| 2026-04-27 07:01 | 17.90561 | 75.47314 | 32884 ft | 498 kts | 120° |
| 2026-04-27 07:01 | 17.87654 | 75.53946 | 32864 ft | 503 kts | 120° |
| 2026-04-27 07:02 | 17.84706 | 75.60661 | 32858 ft | 507 kts | 120° |
| 2026-04-27 07:02 | 17.81768 | 75.67355 | 32855 ft | 508 kts | 120° |
| 2026-04-27 07:03 | 17.78809 | 75.74093 | 32853 ft | 508 kts | 120° |
| 2026-04-27 07:03 | 17.75849 | 75.80820 | 32855 ft | 508 kts | 119° |
| 2026-04-27 07:04 | 17.72880 | 75.87559 | 32854 ft | 508 kts | 119° |
| 2026-04-27 07:04 | 17.69906 | 75.94301 | 32856 ft | 509 kts | 119° |
| 2026-04-27 07:05 | 17.66932 | 76.01032 | 32855 ft | 509 kts | 120° |
| 2026-04-27 07:05 | 17.63957 | 76.07711 | 32852 ft | 509 kts | 120° |
| 2026-04-27 07:06 | 17.60953 | 76.14430 | 32861 ft | 508 kts | 120° |
| 2026-04-27 07:06 | 17.58454 | 76.20012 | 32853 ft | 509 kts | 119° |
| 2026-04-27 07:07 | 17.54945 | 76.27852 | 32853 ft | 508 kts | 119° |
| 2026-04-27 07:07 | 17.52446 | 76.33430 | 32851 ft | 508 kts | 119° |
| 2026-04-27 07:08 | 17.49439 | 76.40130 | 32853 ft | 508 kts | 119° |
| 2026-04-27 07:08 | 17.46426 | 76.46839 | 32854 ft | 508 kts | 119° |
| 2026-04-27 07:09 | 17.43430 | 76.53504 | 32849 ft | 509 kts | 119° |
| 2026-04-27 07:09 | 17.40410 | 76.60215 | 32857 ft | 509 kts | 119° |
| 2026-04-27 07:10 | 17.37389 | 76.66924 | 32855 ft | 509 kts | 119° |
| 2026-04-27 07:10 | 17.34362 | 76.73642 | 32856 ft | 509 kts | 119° |
| 2026-04-27 07:11 | 17.31763 | 76.80551 | 32859 ft | 515 kts | 105° |
| 2026-04-27 07:11 | 17.30904 | 76.88025 | 32857 ft | 519 kts | 95° |
| 2026-04-27 07:12 | 17.30517 | 76.95562 | 32864 ft | 519 kts | 94° |
| 2026-04-27 07:12 | 17.30210 | 77.03053 | 32865 ft | 518 kts | 94° |
| 2026-04-27 07:13 | 17.29871 | 77.10589 | 32867 ft | 518 kts | 94° |
| 2026-04-27 07:13 | 17.29501 | 77.18123 | 32870 ft | 518 kts | 94° |
| 2026-04-27 07:14 | 17.29118 | 77.25660 | 32874 ft | 518 kts | 94° |
| 2026-04-27 07:14 | 17.28733 | 77.33192 | 32872 ft | 518 kts | 94° |
| 2026-04-27 07:15 | 17.28347 | 77.40722 | 32876 ft | 518 kts | 94° |
| 2026-04-27 07:15 | 17.27958 | 77.48254 | 32878 ft | 518 kts | 94° |
| 2026-04-27 07:16 | 17.27570 | 77.55729 | 32882 ft | 518 kts | 94° |
| 2026-04-27 07:16 | 17.27176 | 77.63254 | 32881 ft | 518 kts | 94° |
| 2026-04-27 07:17 | 17.26778 | 77.70793 | 32888 ft | 518 kts | 94° |
| 2026-04-27 07:17 | 17.26379 | 77.78326 | 32889 ft | 518 kts | 94° |
| 2026-04-27 07:18 | 17.25976 | 77.85859 | 32890 ft | 518 kts | 94° |
| 2026-04-27 07:18 | 17.25573 | 77.93347 | 32889 ft | 518 kts | 94° |
| 2026-04-27 07:19 | 17.25164 | 78.00880 | 32892 ft | 517 kts | 94° |
| 2026-04-27 07:19 | 17.24754 | 78.08392 | 32899 ft | 517 kts | 94° |
| 2026-04-27 07:20 | 17.24343 | 78.15864 | 32897 ft | 517 kts | 94° |
| 2026-04-27 07:20 | 17.23928 | 78.23373 | 32906 ft | 517 kts | 94° |
| 2026-04-27 07:21 | 17.23510 | 78.30883 | 32911 ft | 517 kts | 94° |
| 2026-04-27 07:21 | 17.23062 | 78.38397 | 32907 ft | 517 kts | 98° |
| 2026-04-27 07:22 | 17.21464 | 78.45685 | 32911 ft | 513 kts | 108° |
| 2026-04-27 07:22 | 17.19406 | 78.52841 | 32910 ft | 513 kts | 110° |
| 2026-04-27 07:23 | 17.17258 | 78.59961 | 32901 ft | 513 kts | 110° |
| 2026-04-27 07:23 | 17.15130 | 78.67037 | 32896 ft | 513 kts | 110° |
| 2026-04-27 07:24 | 17.13006 | 78.74156 | 32881 ft | 512 kts | 109° |
| 2026-04-27 07:24 | 17.10890 | 78.81268 | 32874 ft | 512 kts | 109° |
| 2026-04-27 07:25 | 17.08771 | 78.88385 | 32861 ft | 512 kts | 109° |
| 2026-04-27 07:25 | 17.06647 | 78.95504 | 32868 ft | 513 kts | 109° |
| 2026-04-27 07:26 | 17.04530 | 79.02591 | 32859 ft | 513 kts | 109° |
| 2026-04-27 07:26 | 17.02399 | 79.09710 | 32854 ft | 513 kts | 109° |
| 2026-04-27 07:27 | 17.00263 | 79.16840 | 32845 ft | 513 kts | 109° |
| 2026-04-27 07:27 | 16.98128 | 79.23953 | 32848 ft | 513 kts | 109° |
| 2026-04-27 07:28 | 16.96019 | 79.31029 | 32842 ft | 513 kts | 109° |
| 2026-04-27 07:28 | 16.94033 | 79.38198 | 32840 ft | 514 kts | 108° |
| 2026-04-27 07:29 | 16.92093 | 79.45388 | 32839 ft | 514 kts | 108° |
| 2026-04-27 07:29 | 16.90144 | 79.52575 | 32830 ft | 514 kts | 108° |
| 2026-04-27 07:30 | 16.88177 | 79.59765 | 32833 ft | 514 kts | 108° |
| 2026-04-27 07:30 | 16.86214 | 79.66911 | 32832 ft | 514 kts | 108° |
| 2026-04-27 07:31 | 16.84237 | 79.74094 | 32823 ft | 514 kts | 108° |
| 2026-04-27 07:31 | 16.82258 | 79.81279 | 32823 ft | 514 kts | 108° |
| 2026-04-27 07:32 | 16.80278 | 79.88455 | 32820 ft | 514 kts | 108° |
| 2026-04-27 07:32 | 16.78299 | 79.95616 | 32818 ft | 513 kts | 108° |
| 2026-04-27 07:33 | 16.76318 | 80.02775 | 32815 ft | 512 kts | 108° |
| 2026-04-27 07:33 | 16.74349 | 80.09876 | 32815 ft | 512 kts | 108° |
| 2026-04-27 07:34 | 16.72365 | 80.17024 | 32810 ft | 512 kts | 108° |
| 2026-04-27 07:34 | 16.70385 | 80.24158 | 32810 ft | 512 kts | 108° |
| 2026-04-27 07:35 | 16.68400 | 80.31296 | 32808 ft | 512 kts | 108° |
| 2026-04-27 07:35 | 16.66409 | 80.38442 | 32804 ft | 512 kts | 108° |
| 2026-04-27 07:36 | 16.64432 | 80.45528 | 32802 ft | 512 kts | 108° |
| 2026-04-27 07:36 | 16.62441 | 80.52647 | 32802 ft | 512 kts | 108° |
| 2026-04-27 07:37 | 16.60449 | 80.59767 | 32799 ft | 511 kts | 108° |
| 2026-04-27 07:37 | 16.58455 | 80.66883 | 32802 ft | 511 kts | 108° |
| 2026-04-27 07:38 | 16.56460 | 80.73992 | 32802 ft | 511 kts | 108° |
| 2026-04-27 07:38 | 16.54447 | 80.81102 | 32799 ft | 511 kts | 110° |
| 2026-04-27 07:39 | 16.51411 | 80.87741 | 32801 ft | 507 kts | 121° |
| 2026-04-27 07:39 | 16.47929 | 80.94058 | 32801 ft | 504 kts | 123° |
| 2026-04-27 07:40 | 16.44356 | 81.00317 | 32795 ft | 502 kts | 123° |
| 2026-04-27 07:40 | 16.40789 | 81.06569 | 32796 ft | 502 kts | 123° |
| 2026-04-27 07:41 | 16.37241 | 81.12824 | 32792 ft | 502 kts | 123° |
| 2026-04-27 07:41 | 16.33696 | 81.19087 | 32793 ft | 502 kts | 123° |
| 2026-04-27 07:42 | 16.30174 | 81.25306 | 32797 ft | 502 kts | 123° |
| 2026-04-27 07:42 | 16.26628 | 81.31561 | 32797 ft | 501 kts | 123° |
| 2026-04-27 07:43 | 16.23083 | 81.37808 | 32806 ft | 501 kts | 123° |
| 2026-04-27 07:43 | 16.19532 | 81.44059 | 32804 ft | 501 kts | 123° |
| 2026-04-27 07:44 | 16.15984 | 81.50298 | 32804 ft | 500 kts | 123° |
| 2026-04-27 07:44 | 16.12439 | 81.56528 | 32807 ft | 500 kts | 123° |
| 2026-04-27 07:45 | 16.08919 | 81.62710 | 32809 ft | 499 kts | 123° |
| 2026-04-27 07:45 | 16.05376 | 81.68928 | 32807 ft | 500 kts | 123° |
| 2026-04-27 07:46 | 16.01827 | 81.75147 | 32800 ft | 500 kts | 123° |
| 2026-04-27 07:46 | 15.98282 | 81.81356 | 32804 ft | 499 kts | 123° |
| 2026-04-27 07:47 | 15.94731 | 81.87570 | 32806 ft | 499 kts | 123° |
| 2026-04-27 07:47 | 15.91182 | 81.93776 | 32805 ft | 499 kts | 123° |
| 2026-04-27 07:48 | 15.87650 | 81.99945 | 32803 ft | 499 kts | 123° |
| 2026-04-27 07:48 | 15.84119 | 82.06165 | 32802 ft | 500 kts | 122° |
| 2026-04-27 07:49 | 15.80688 | 82.12443 | 32804 ft | 499 kts | 121° |
| 2026-04-27 07:49 | 15.77285 | 82.18723 | 32802 ft | 499 kts | 121° |
| 2026-04-27 07:50 | 15.73868 | 82.25005 | 32805 ft | 499 kts | 121° |
| 2026-04-27 07:50 | 15.70466 | 82.31236 | 32802 ft | 499 kts | 121° |
| 2026-04-27 07:51 | 15.67041 | 82.37505 | 32802 ft | 499 kts | 121° |
| 2026-04-27 07:51 | 15.63650 | 82.43790 | 32802 ft | 499 kts | 121° |
| 2026-04-27 07:52 | 15.60268 | 82.50088 | 32804 ft | 499 kts | 121° |
| 2026-04-27 07:52 | 15.56882 | 82.56386 | 32804 ft | 499 kts | 121° |
| 2026-04-27 07:53 | 15.53494 | 82.62675 | 32806 ft | 499 kts | 121° |
| 2026-04-27 07:53 | 15.50123 | 82.68921 | 32804 ft | 498 kts | 121° |
| 2026-04-27 07:54 | 15.46741 | 82.75186 | 32802 ft | 497 kts | 121° |
| 2026-04-27 07:54 | 15.43360 | 82.81442 | 32801 ft | 497 kts | 121° |
| 2026-04-27 07:55 | 15.39971 | 82.87687 | 32801 ft | 496 kts | 121° |
| 2026-04-27 07:55 | 15.36588 | 82.93863 | 32804 ft | 496 kts | 121° |
| 2026-04-27 07:56 | 15.33174 | 83.00081 | 32807 ft | 496 kts | 121° |
| 2026-04-27 07:56 | 15.29761 | 83.06299 | 32810 ft | 496 kts | 121° |
| 2026-04-27 07:57 | 15.26919 | 83.11475 | 32807 ft | 496 kts | 121° |
| 2026-04-27 07:57 | 15.23505 | 83.17689 | 32807 ft | 496 kts | 121° |
| 2026-04-27 07:58 | 15.19535 | 83.24911 | 32807 ft | 496 kts | 121° |
| 2026-04-27 07:58 | 15.16676 | 83.30106 | 32807 ft | 496 kts | 121° |
| 2026-04-27 07:59 | 15.13285 | 83.36264 | 32807 ft | 496 kts | 121° |
| 2026-04-27 07:59 | 15.08162 | 83.45556 | 32807 ft | 496 kts | 121° |
| 2026-04-27 08:00 | 15.04739 | 83.51758 | 32809 ft | 496 kts | 121° |
| 2026-04-27 08:00 | 15.01316 | 83.57956 | 32810 ft | 496 kts | 121° |
| 2026-04-27 08:01 | 14.97891 | 83.64151 | 32807 ft | 496 kts | 121° |
| 2026-04-27 08:01 | 14.94466 | 83.70343 | 32807 ft | 496 kts | 121° |
| 2026-04-27 08:02 | 14.91062 | 83.76493 | 32807 ft | 496 kts | 121° |
| 2026-04-27 08:02 | 14.87633 | 83.82680 | 32807 ft | 496 kts | 121° |
| 2026-04-27 08:03 | 14.84208 | 83.88858 | 32800 ft | 495 kts | 121° |
| 2026-04-27 08:03 | 14.80785 | 83.95024 | 32804 ft | 494 kts | 121° |
| 2026-04-27 08:04 | 14.77359 | 84.01193 | 32807 ft | 494 kts | 121° |
| 2026-04-27 08:04 | 14.73933 | 84.07357 | 32807 ft | 494 kts | 121° |
| 2026-04-27 08:05 | 14.70505 | 84.13519 | 32807 ft | 494 kts | 121° |
| 2026-04-27 08:05 | 14.67100 | 84.19636 | 32807 ft | 494 kts | 121° |
| 2026-04-27 08:06 | 14.63667 | 84.25797 | 32804 ft | 494 kts | 121° |
| 2026-04-27 08:06 | 14.60236 | 84.31949 | 32804 ft | 495 kts | 121° |
| 2026-04-27 08:07 | 14.56802 | 84.38104 | 32804 ft | 495 kts | 121° |
| 2026-04-27 08:07 | 14.53362 | 84.44264 | 32804 ft | 495 kts | 121° |
| 2026-04-27 08:08 | 14.49917 | 84.50427 | 32802 ft | 494 kts | 121° |
| 2026-04-27 08:08 | 14.46513 | 84.56513 | 32804 ft | 492 kts | 121° |
| 2026-04-27 08:09 | 14.43092 | 84.62625 | 32804 ft | 492 kts | 121° |
| 2026-04-27 08:09 | 14.39662 | 84.68748 | 32804 ft | 492 kts | 121° |
| 2026-04-27 08:10 | 14.36231 | 84.74869 | 32804 ft | 492 kts | 121° |
| 2026-04-27 08:10 | 14.32801 | 84.80981 | 32804 ft | 492 kts | 121° |
| 2026-04-27 08:11 | 14.29371 | 84.87093 | 32804 ft | 492 kts | 121° |
| 2026-04-27 08:11 | 14.25939 | 84.93205 | 32804 ft | 492 kts | 121° |
| 2026-04-27 08:12 | 14.22507 | 84.99312 | 32807 ft | 492 kts | 121° |
| 2026-04-27 08:12 | 14.19075 | 85.05416 | 32804 ft | 492 kts | 121° |
| 2026-04-27 08:13 | 14.15657 | 85.11487 | 32803 ft | 492 kts | 121° |
| 2026-04-27 08:13 | 14.12224 | 85.17583 | 32804 ft | 490 kts | 121° |
| 2026-04-27 08:14 | 14.08800 | 85.23658 | 32804 ft | 490 kts | 121° |
| 2026-04-27 08:14 | 14.05370 | 85.29741 | 32804 ft | 490 kts | 121° |
| 2026-04-27 08:15 | 14.01963 | 85.35776 | 32807 ft | 490 kts | 121° |
| 2026-04-27 08:15 | 13.98529 | 85.41856 | 32807 ft | 490 kts | 121° |
| 2026-04-27 08:16 | 13.95100 | 85.47921 | 32804 ft | 490 kts | 121° |
| 2026-04-27 08:16 | 13.91667 | 85.53990 | 32804 ft | 490 kts | 121° |
| 2026-04-27 08:17 | 13.88237 | 85.60049 | 32804 ft | 490 kts | 121° |
| 2026-04-27 08:17 | 13.84803 | 85.66111 | 32804 ft | 490 kts | 121° |
| 2026-04-27 08:18 | 13.81390 | 85.72131 | 32803 ft | 490 kts | 121° |
| 2026-04-27 08:18 | 13.77976 | 85.78150 | 32801 ft | 485 kts | 121° |
| 2026-04-27 08:19 | 13.74574 | 85.84141 | 32804 ft | 484 kts | 121° |
| 2026-04-27 08:19 | 13.71175 | 85.90123 | 32804 ft | 484 kts | 121° |
| 2026-04-27 08:20 | 13.67777 | 85.96098 | 32805 ft | 484 kts | 121° |
| 2026-04-27 08:20 | 13.64379 | 86.02071 | 32804 ft | 484 kts | 121° |
| 2026-04-27 08:21 | 13.60976 | 86.08048 | 32801 ft | 484 kts | 121° |
| 2026-04-27 08:21 | 13.57572 | 86.14021 | 32801 ft | 484 kts | 121° |
| 2026-04-27 08:22 | 13.54169 | 86.19990 | 32800 ft | 484 kts | 121° |
| 2026-04-27 08:22 | 13.50786 | 86.25919 | 32802 ft | 483 kts | 121° |
| 2026-04-27 08:23 | 13.47381 | 86.31882 | 32804 ft | 483 kts | 121° |
| 2026-04-27 08:23 | 13.43987 | 86.37821 | 32803 ft | 480 kts | 121° |
| 2026-04-27 08:24 | 13.40611 | 86.43726 | 32804 ft | 478 kts | 121° |
| 2026-04-27 08:24 | 13.37240 | 86.49617 | 32805 ft | 478 kts | 121° |
| 2026-04-27 08:25 | 13.33888 | 86.55473 | 32804 ft | 478 kts | 121° |
| 2026-04-27 08:25 | 13.30513 | 86.61364 | 32807 ft | 478 kts | 121° |
| 2026-04-27 08:26 | 13.27137 | 86.67252 | 32804 ft | 478 kts | 121° |
| 2026-04-27 08:26 | 13.23756 | 86.73144 | 32804 ft | 479 kts | 121° |
| 2026-04-27 08:27 | 13.20396 | 86.78997 | 32804 ft | 479 kts | 121° |
| 2026-04-27 08:27 | 13.17015 | 86.84882 | 32809 ft | 478 kts | 121° |
| 2026-04-27 08:28 | 13.13633 | 86.90766 | 32807 ft | 479 kts | 121° |
| 2026-04-27 08:28 | 13.10253 | 86.96640 | 32807 ft | 477 kts | 121° |
| 2026-04-27 08:29 | 13.06882 | 87.02496 | 32807 ft | 475 kts | 121° |
| 2026-04-27 08:29 | 13.03521 | 87.08332 | 32807 ft | 475 kts | 121° |
| 2026-04-27 08:30 | 13.00161 | 87.14160 | 32810 ft | 475 kts | 121° |
| 2026-04-27 08:30 | 12.96799 | 87.19990 | 32809 ft | 475 kts | 121° |
| 2026-04-27 08:31 | 12.93448 | 87.25795 | 32807 ft | 475 kts | 121° |
| 2026-04-27 08:31 | 12.90084 | 87.31620 | 32810 ft | 475 kts | 121° |
| 2026-04-27 08:32 | 12.86714 | 87.37451 | 32807 ft | 474 kts | 121° |
| 2026-04-27 08:32 | 12.83373 | 87.43228 | 32807 ft | 474 kts | 121° |
| 2026-04-27 08:33 | 12.80001 | 87.49055 | 32807 ft | 474 kts | 121° |
| 2026-04-27 08:33 | 12.76634 | 87.54870 | 32807 ft | 474 kts | 121° |
| 2026-04-27 08:34 | 12.73275 | 87.60667 | 32809 ft | 472 kts | 121° |
| 2026-04-27 08:34 | 12.69927 | 87.66441 | 32810 ft | 471 kts | 121° |
| 2026-04-27 08:35 | 12.66607 | 87.72164 | 32807 ft | 470 kts | 121° |
| 2026-04-27 08:35 | 12.63255 | 87.77937 | 32807 ft | 471 kts | 121° |
| 2026-04-27 08:36 | 12.59906 | 87.83701 | 32809 ft | 470 kts | 121° |
| 2026-04-27 08:36 | 12.56557 | 87.89465 | 32810 ft | 471 kts | 121° |
| 2026-04-27 08:37 | 12.53205 | 87.95227 | 32809 ft | 471 kts | 121° |
| 2026-04-27 08:37 | 12.49877 | 88.00945 | 32811 ft | 471 kts | 121° |
| 2026-04-27 08:38 | 12.46527 | 88.06698 | 32806 ft | 471 kts | 121° |
| 2026-04-27 08:38 | 12.43170 | 88.12459 | 32808 ft | 471 kts | 121° |
| 2026-04-27 08:39 | 12.39808 | 88.18225 | 32810 ft | 471 kts | 121° |
| 2026-04-27 08:39 | 12.36454 | 88.23974 | 32807 ft | 470 kts | 121° |
| 2026-04-27 08:40 | 12.33101 | 88.29717 | 32807 ft | 470 kts | 121° |
| 2026-04-27 08:40 | 12.29749 | 88.35456 | 32807 ft | 470 kts | 121° |
| 2026-04-27 08:41 | 12.26397 | 88.41191 | 32810 ft | 469 kts | 121° |
| 2026-04-27 08:41 | 12.23065 | 88.46888 | 32810 ft | 469 kts | 121° |
| 2026-04-27 08:42 | 12.19708 | 88.52623 | 32807 ft | 470 kts | 121° |
| 2026-04-27 08:42 | 12.16342 | 88.58372 | 32807 ft | 471 kts | 121° |
| 2026-04-27 08:43 | 12.12977 | 88.64115 | 32807 ft | 471 kts | 121° |
| 2026-04-27 08:43 | 12.09605 | 88.69856 | 32807 ft | 471 kts | 121° |
| 2026-04-27 08:44 | 12.06192 | 88.75569 | 32807 ft | 471 kts | 122° |
| 2026-04-27 08:44 | 12.02780 | 88.81241 | 32813 ft | 471 kts | 122° |
| 2026-04-27 08:45 | 11.99350 | 88.86944 | 32812 ft | 471 kts | 122° |
| 2026-04-27 08:45 | 11.95920 | 88.92652 | 32812 ft | 472 kts | 122° |
| 2026-04-27 08:46 | 11.92492 | 88.98358 | 32810 ft | 472 kts | 121° |
| 2026-04-27 08:46 | 11.89055 | 89.04075 | 32810 ft | 472 kts | 122° |
| 2026-04-27 08:47 | 11.85624 | 89.09779 | 32810 ft | 472 kts | 122° |
| 2026-04-27 08:47 | 11.82207 | 89.15454 | 32810 ft | 472 kts | 122° |
| 2026-04-27 08:48 | 11.79348 | 89.20202 | 32809 ft | 471 kts | 122° |
| 2026-04-27 08:48 | 11.75909 | 89.25909 | 32810 ft | 473 kts | 122° |
| 2026-04-27 08:49 | 11.72458 | 89.31631 | 32812 ft | 473 kts | 122° |
| 2026-04-27 08:49 | 11.69006 | 89.37354 | 32813 ft | 474 kts | 122° |
| 2026-04-27 08:50 | 11.65549 | 89.43081 | 32809 ft | 473 kts | 122° |
| 2026-04-27 08:50 | 11.62093 | 89.48804 | 32810 ft | 474 kts | 122° |
| 2026-04-27 08:51 | 11.58631 | 89.54532 | 32809 ft | 473 kts | 122° |
| 2026-04-27 08:51 | 11.55190 | 89.60222 | 32810 ft | 474 kts | 122° |
| 2026-04-27 08:52 | 11.51725 | 89.65949 | 32809 ft | 473 kts | 122° |
| 2026-04-27 08:52 | 11.48264 | 89.71666 | 32810 ft | 474 kts | 122° |
| 2026-04-27 08:53 | 11.44801 | 89.77384 | 32807 ft | 474 kts | 122° |
| 2026-04-27 08:53 | 11.41336 | 89.83101 | 32807 ft | 474 kts | 122° |
| 2026-04-27 08:54 | 11.37869 | 89.88818 | 32806 ft | 473 kts | 122° |
| 2026-04-27 08:54 | 11.34426 | 89.94493 | 32807 ft | 474 kts | 122° |
| 2026-04-27 08:55 | 11.30957 | 90.00207 | 32806 ft | 473 kts | 122° |
| 2026-04-27 08:55 | 11.27487 | 90.05922 | 32810 ft | 475 kts | 122° |
| 2026-04-27 08:56 | 11.24010 | 90.11642 | 32810 ft | 474 kts | 122° |
| 2026-04-27 08:56 | 11.20535 | 90.17355 | 32809 ft | 474 kts | 122° |
| 2026-04-27 08:57 | 11.15340 | 90.25892 | 32807 ft | 474 kts | 122° |
| 2026-04-27 08:58 | 11.11866 | 90.31598 | 32808 ft | 474 kts | 122° |
| 2026-04-27 08:58 | 11.08388 | 90.37305 | 32807 ft | 474 kts | 122° |
| 2026-04-27 08:59 | 11.04903 | 90.43023 | 32807 ft | 475 kts | 122° |
| 2026-04-27 08:59 | 11.01412 | 90.48746 | 32807 ft | 475 kts | 122° |
| 2026-04-27 09:00 | 10.97944 | 90.54430 | 32807 ft | 476 kts | 122° |
| 2026-04-27 09:00 | 10.94451 | 90.60148 | 32809 ft | 475 kts | 122° |
| 2026-04-27 09:01 | 10.90968 | 90.65851 | 32809 ft | 473 kts | 122° |
| 2026-04-27 09:01 | 10.87492 | 90.71537 | 32806 ft | 472 kts | 122° |
| 2026-04-27 09:02 | 10.84015 | 90.77223 | 32802 ft | 473 kts | 122° |
| 2026-04-27 09:02 | 10.80530 | 90.82917 | 32804 ft | 474 kts | 122° |
| 2026-04-27 09:03 | 10.77063 | 90.88581 | 32803 ft | 475 kts | 122° |
| 2026-04-27 09:03 | 10.73573 | 90.94278 | 32806 ft | 474 kts | 122° |
| 2026-04-27 09:04 | 10.70083 | 90.99973 | 32812 ft | 474 kts | 122° |
| 2026-04-27 09:04 | 10.66591 | 91.05667 | 32809 ft | 474 kts | 122° |
| 2026-04-27 09:05 | 10.63095 | 91.11365 | 32805 ft | 475 kts | 122° |
| 2026-04-27 09:05 | 10.59602 | 91.17058 | 32807 ft | 475 kts | 122° |
| 2026-04-27 09:06 | 10.56104 | 91.22756 | 32808 ft | 475 kts | 122° |
| 2026-04-27 09:06 | 10.52630 | 91.28408 | 32804 ft | 473 kts | 122° |
| 2026-04-27 09:07 | 10.49144 | 91.34076 | 32807 ft | 473 kts | 122° |
| 2026-04-27 09:07 | 10.45657 | 91.39743 | 32807 ft | 473 kts | 122° |
| 2026-04-27 09:08 | 10.42167 | 91.45415 | 32808 ft | 473 kts | 122° |
| 2026-04-27 09:08 | 10.38677 | 91.51083 | 32810 ft | 473 kts | 122° |
| 2026-04-27 09:09 | 10.35188 | 91.56747 | 32802 ft | 473 kts | 123° |
| 2026-04-27 09:09 | 10.31698 | 91.62409 | 32802 ft | 473 kts | 122° |
| 2026-04-27 09:10 | 10.28230 | 91.68032 | 32803 ft | 473 kts | 123° |
| 2026-04-27 09:10 | 10.24732 | 91.73700 | 32805 ft | 473 kts | 122° |
| 2026-04-27 09:11 | 10.21237 | 91.79362 | 32804 ft | 473 kts | 123° |
| 2026-04-27 09:11 | 10.17740 | 91.85020 | 32805 ft | 472 kts | 122° |
| 2026-04-27 09:12 | 10.14276 | 91.90628 | 32804 ft | 471 kts | 122° |
| 2026-04-27 09:12 | 10.10805 | 91.96246 | 32804 ft | 468 kts | 122° |
| 2026-04-27 09:13 | 10.07346 | 92.01839 | 32803 ft | 467 kts | 122° |
| 2026-04-27 09:13 | 10.03889 | 92.07425 | 32804 ft | 467 kts | 122° |
| 2026-04-27 09:14 | 10.00432 | 92.13009 | 32804 ft | 467 kts | 122° |
| 2026-04-27 09:14 | 9.96990 | 92.18567 | 32804 ft | 467 kts | 122° |
| 2026-04-27 09:15 | 9.93531 | 92.24148 | 32805 ft | 467 kts | 122° |
| 2026-04-27 09:15 | 9.90069 | 92.29732 | 32805 ft | 467 kts | 122° |
| 2026-04-27 09:16 | 9.86614 | 92.35301 | 32807 ft | 467 kts | 122° |
| 2026-04-27 09:16 | 9.83158 | 92.40870 | 32807 ft | 466 kts | 122° |
| 2026-04-27 09:17 | 9.79713 | 92.46421 | 32804 ft | 464 kts | 122° |
| 2026-04-27 09:17 | 9.76284 | 92.51940 | 32804 ft | 462 kts | 123° |
| 2026-04-27 09:18 | 9.72860 | 92.57448 | 32803 ft | 462 kts | 122° |
| 2026-04-27 09:18 | 9.69434 | 92.62958 | 32805 ft | 461 kts | 123° |
| 2026-04-27 09:19 | 9.66033 | 92.68425 | 32804 ft | 462 kts | 122° |
| 2026-04-27 09:19 | 9.62578 | 92.73977 | 32807 ft | 463 kts | 122° |
| 2026-04-27 09:20 | 9.59166 | 92.79456 | 32808 ft | 463 kts | 123° |
| 2026-04-27 09:20 | 9.55722 | 92.84986 | 32806 ft | 463 kts | 123° |
| 2026-04-27 09:21 | 9.52283 | 92.90505 | 32806 ft | 463 kts | 123° |
| 2026-04-27 09:21 | 9.48842 | 92.96024 | 32807 ft | 463 kts | 122° |
| 2026-04-27 09:22 | 9.45425 | 93.01502 | 32805 ft | 462 kts | 122° |
| 2026-04-27 09:22 | 9.41996 | 93.06999 | 32804 ft | 460 kts | 122° |
| 2026-04-27 09:23 | 9.38573 | 93.12481 | 32807 ft | 459 kts | 122° |
| 2026-04-27 09:23 | 9.35156 | 93.17952 | 32804 ft | 459 kts | 122° |
| 2026-04-27 09:24 | 9.31762 | 93.23384 | 32806 ft | 459 kts | 122° |
| 2026-04-27 09:24 | 9.28342 | 93.28855 | 32807 ft | 459 kts | 122° |
| 2026-04-27 09:25 | 9.24925 | 93.34318 | 32808 ft | 459 kts | 122° |
| 2026-04-27 09:25 | 9.21500 | 93.39791 | 32807 ft | 459 kts | 122° |
| 2026-04-27 09:26 | 9.18083 | 93.45251 | 32805 ft | 459 kts | 122° |
| 2026-04-27 09:26 | 9.14663 | 93.50712 | 32807 ft | 459 kts | 122° |
| 2026-04-27 09:27 | 9.11262 | 93.56141 | 32807 ft | 459 kts | 122° |
| 2026-04-27 09:27 | 9.07840 | 93.61602 | 32807 ft | 459 kts | 122° |
| 2026-04-27 09:28 | 9.04423 | 93.67050 | 32806 ft | 457 kts | 122° |
| 2026-04-27 09:28 | 9.01018 | 93.72478 | 32807 ft | 456 kts | 122° |
| 2026-04-27 09:29 | 8.97644 | 93.77854 | 32810 ft | 456 kts | 122° |
| 2026-04-27 09:29 | 8.94245 | 93.83269 | 32811 ft | 456 kts | 122° |
| 2026-04-27 09:30 | 8.90845 | 93.88683 | 32811 ft | 455 kts | 122° |
| 2026-04-27 09:30 | 8.87449 | 93.94087 | 32813 ft | 455 kts | 122° |
| 2026-04-27 09:31 | 8.84041 | 93.99509 | 32813 ft | 455 kts | 122° |
| 2026-04-27 09:31 | 8.80663 | 94.04880 | 32812 ft | 456 kts | 122° |
| 2026-04-27 09:32 | 8.77257 | 94.10295 | 32813 ft | 456 kts | 122° |
| 2026-04-27 09:32 | 8.73855 | 94.15700 | 32818 ft | 456 kts | 122° |
| 2026-04-27 09:33 | 8.70453 | 94.21104 | 32815 ft | 456 kts | 122° |
| 2026-04-27 09:33 | 8.67032 | 94.26534 | 32816 ft | 457 kts | 122° |
| 2026-04-27 09:34 | 8.63615 | 94.31956 | 32819 ft | 457 kts | 122° |
| 2026-04-27 09:34 | 8.60224 | 94.37337 | 32818 ft | 457 kts | 122° |
| 2026-04-27 09:35 | 8.56851 | 94.42794 | 32820 ft | 457 kts | 120° |
| 2026-04-27 09:35 | 8.53827 | 94.48437 | 32821 ft | 457 kts | 117° |
| 2026-04-27 09:36 | 8.50919 | 94.54145 | 32821 ft | 457 kts | 117° |
| 2026-04-27 09:36 | 8.47992 | 94.59840 | 32822 ft | 457 kts | 117° |
| 2026-04-27 09:37 | 8.45031 | 94.65529 | 32817 ft | 457 kts | 117° |
| 2026-04-27 09:37 | 8.42077 | 94.71175 | 32818 ft | 457 kts | 117° |
| 2026-04-27 09:38 | 8.39097 | 94.76863 | 32821 ft | 457 kts | 117° |
| 2026-04-27 09:38 | 8.36629 | 94.81575 | 32821 ft | 457 kts | 117° |
| 2026-04-27 09:39 | 8.33654 | 94.87256 | 32819 ft | 457 kts | 117° |
| 2026-04-27 09:39 | 8.30682 | 94.92929 | 32821 ft | 457 kts | 117° |
| 2026-04-27 09:40 | 8.27708 | 94.98604 | 32821 ft | 457 kts | 117° |
| 2026-04-27 09:40 | 8.24733 | 95.04276 | 32818 ft | 456 kts | 117° |
| 2026-04-27 09:41 | 8.21782 | 95.09903 | 32821 ft | 456 kts | 117° |
| 2026-04-27 09:41 | 8.18805 | 95.15575 | 32821 ft | 456 kts | 117° |
| 2026-04-27 09:42 | 8.15833 | 95.21235 | 32821 ft | 456 kts | 117° |
| 2026-04-27 09:42 | 8.12860 | 95.26896 | 32677 ft | 456 kts | 117° |
| 2026-04-27 09:42 | 8.11374 | 95.29722 | 32333 ft | 456 kts | 117° |
| 2026-04-27 09:43 | 8.09889 | 95.32549 | 31999 ft | 456 kts | 117° |
| 2026-04-27 09:43 | 8.08397 | 95.35388 | 31660 ft | 457 kts | 117° |
| 2026-04-27 09:43 | 8.06910 | 95.38215 | 31326 ft | 457 kts | 117° |
| 2026-04-27 09:43 | 8.05419 | 95.41050 | 31007 ft | 457 kts | 117° |
| 2026-04-27 09:44 | 8.03949 | 95.43846 | 30684 ft | 457 kts | 117° |
| 2026-04-27 09:44 | 8.02465 | 95.46690 | 30360 ft | 458 kts | 115° |
| 2026-04-27 09:44 | 8.01315 | 95.49675 | 30047 ft | 457 kts | 105° |
| 2026-04-27 09:44 | 8.00741 | 95.52811 | 29698 ft | 455 kts | 94° |
| 2026-04-27 09:45 | 8.00623 | 95.55996 | 29336 ft | 453 kts | 90° |
| 2026-04-27 09:45 | 8.00647 | 95.59164 | 28963 ft | 451 kts | 88° |
| 2026-04-27 09:45 | 8.00749 | 95.62322 | 28603 ft | 449 kts | 88° |
| 2026-04-27 09:45 | 8.00881 | 95.65467 | 28246 ft | 447 kts | 87° |
| 2026-04-27 09:46 | 8.01019 | 95.68586 | 27898 ft | 444 kts | 87° |
| 2026-04-27 09:46 | 8.01149 | 95.71700 | 27545 ft | 442 kts | 87° |
| 2026-04-27 09:46 | 8.01268 | 95.74801 | 27201 ft | 440 kts | 88° |
| 2026-04-27 09:46 | 8.01377 | 95.77840 | 26867 ft | 438 kts | 88° |
| 2026-04-27 09:47 | 8.01481 | 95.80911 | 26536 ft | 436 kts | 88° |
| 2026-04-27 09:47 | 8.01581 | 95.83965 | 26200 ft | 434 kts | 88° |
| 2026-04-27 09:47 | 8.01679 | 95.87003 | 25879 ft | 432 kts | 88° |
| 2026-04-27 09:47 | 8.01776 | 95.90031 | 25557 ft | 430 kts | 88° |
| 2026-04-27 09:48 | 8.01872 | 95.93047 | 25229 ft | 429 kts | 88° |
| 2026-04-27 09:48 | 8.01969 | 95.96053 | 24910 ft | 427 kts | 88° |
| 2026-04-27 09:48 | 8.02065 | 95.99038 | 24600 ft | 425 kts | 88° |
| 2026-04-27 09:48 | 8.02160 | 96.02015 | 24288 ft | 423 kts | 88° |
| 2026-04-27 09:49 | 8.02256 | 96.04984 | 23987 ft | 428 kts | 88° |
| 2026-04-27 09:49 | 8.02353 | 96.08012 | 23692 ft | 445 kts | 88° |
| 2026-04-27 09:49 | 8.02455 | 96.11163 | 23387 ft | 451 kts | 88° |
| 2026-04-27 09:49 | 8.02556 | 96.14332 | 23028 ft | 451 kts | 88° |
| 2026-04-27 09:50 | 8.02656 | 96.17492 | 22673 ft | 449 kts | 88° |
| 2026-04-27 09:50 | 8.02756 | 96.20634 | 22323 ft | 447 kts | 88° |
| 2026-04-27 09:50 | 8.02855 | 96.23767 | 21975 ft | 445 kts | 88° |
| 2026-04-27 09:50 | 8.02953 | 96.26884 | 21621 ft | 443 kts | 88° |
| 2026-04-27 09:51 | 8.03050 | 96.29981 | 21284 ft | 441 kts | 88° |
| 2026-04-27 09:51 | 8.03147 | 96.33067 | 20943 ft | 439 kts | 88° |
| 2026-04-27 09:51 | 8.03244 | 96.36141 | 20609 ft | 437 kts | 88° |
| 2026-04-27 09:51 | 8.03339 | 96.39199 | 20283 ft | 435 kts | 88° |
| 2026-04-27 09:52 | 8.03434 | 96.42241 | 19948 ft | 433 kts | 88° |
| 2026-04-27 09:52 | 8.03529 | 96.45276 | 19624 ft | 431 kts | 88° |
| 2026-04-27 09:52 | 8.03622 | 96.48257 | 19313 ft | 430 kts | 88° |
| 2026-04-27 09:52 | 8.03715 | 96.51262 | 19000 ft | 428 kts | 88° |
| 2026-04-27 09:53 | 8.03807 | 96.54255 | 18680 ft | 426 kts | 88° |
| 2026-04-27 09:53 | 8.03900 | 96.57242 | 18374 ft | 425 kts | 88° |
| 2026-04-27 09:53 | 8.03991 | 96.60217 | 18063 ft | 423 kts | 88° |
| 2026-04-27 09:53 | 8.04082 | 96.63176 | 17700 ft | 421 kts | 88° |
| 2026-04-27 09:54 | 8.04172 | 96.66122 | 17349 ft | 419 kts | 88° |
| 2026-04-27 09:54 | 8.04262 | 96.69062 | 17005 ft | 417 kts | 88° |
| 2026-04-27 09:54 | 8.04351 | 96.71979 | 16657 ft | 415 kts | 88° |
| 2026-04-27 09:54 | 8.04440 | 96.74888 | 16310 ft | 413 kts | 88° |
| 2026-04-27 09:55 | 8.04528 | 96.77777 | 15971 ft | 411 kts | 88° |
| 2026-04-27 09:55 | 8.04615 | 96.80650 | 15637 ft | 409 kts | 88° |
| 2026-04-27 09:55 | 8.04787 | 96.86356 | 14980 ft | 405 kts | 88° |
| 2026-04-27 09:56 | 8.04872 | 96.89188 | 14657 ft | 403 kts | 88° |
| 2026-04-27 09:56 | 8.04957 | 96.92007 | 14336 ft | 400 kts | 88° |
| 2026-04-27 09:56 | 8.05040 | 96.94775 | 14023 ft | 399 kts | 88° |
| 2026-04-27 09:56 | 8.05123 | 96.97570 | 13709 ft | 397 kts | 88° |
| 2026-04-27 09:57 | 8.05206 | 97.00349 | 13364 ft | 395 kts | 88° |
| 2026-04-27 09:57 | 8.05288 | 97.03112 | 13015 ft | 393 kts | 88° |
| 2026-04-27 09:57 | 8.05370 | 97.05862 | 12660 ft | 391 kts | 88° |
| 2026-04-27 09:57 | 8.05451 | 97.08598 | 12315 ft | 389 kts | 88° |
| 2026-04-27 09:58 | 8.05531 | 97.11315 | 11984 ft | 387 kts | 88° |
| 2026-04-27 09:58 | 8.05611 | 97.14021 | 11639 ft | 384 kts | 88° |
| 2026-04-27 09:58 | 8.05690 | 97.16707 | 11302 ft | 382 kts | 88° |
| 2026-04-27 09:58 | 8.05768 | 97.19378 | 10977 ft | 380 kts | 88° |
| 2026-04-27 09:59 | 8.05854 | 97.22009 | 10648 ft | 378 kts | 88° |
| 2026-04-27 09:59 | 8.05972 | 97.24654 | 10325 ft | 376 kts | 87° |
| 2026-04-27 09:59 | 8.06110 | 97.27280 | 10006 ft | 374 kts | 87° |
| 2026-04-27 09:59 | 8.06257 | 97.29901 | 9832 ft | 373 kts | 87° |
| 2026-04-27 10:00 | 8.06405 | 97.32513 | 9802 ft | 372 kts | 87° |
| 2026-04-27 10:00 | 8.06551 | 97.35118 | 9804 ft | 371 kts | 87° |
| 2026-04-27 10:00 | 8.06694 | 97.37722 | 9804 ft | 371 kts | 87° |
| 2026-04-27 10:00 | 8.06835 | 97.40324 | 9804 ft | 371 kts | 87° |
| 2026-04-27 10:01 | 8.06974 | 97.42923 | 9804 ft | 371 kts | 87° |
| 2026-04-27 10:01 | 8.07112 | 97.45522 | 9801 ft | 371 kts | 87° |
| 2026-04-27 10:01 | 8.07250 | 97.48120 | 9801 ft | 371 kts | 87° |
| 2026-04-27 10:01 | 8.07386 | 97.50699 | 9801 ft | 371 kts | 87° |
| 2026-04-27 10:02 | 8.07523 | 97.53297 | 9801 ft | 371 kts | 87° |
| 2026-04-27 10:02 | 8.07659 | 97.55898 | 9801 ft | 371 kts | 87° |
| 2026-04-27 10:02 | 8.07793 | 97.58496 | 9804 ft | 371 kts | 87° |
| 2026-04-27 10:02 | 8.07925 | 97.61097 | 9800 ft | 370 kts | 88° |
| 2026-04-27 10:03 | 8.08056 | 97.63688 | 9801 ft | 370 kts | 88° |
| 2026-04-27 10:03 | 8.08187 | 97.66277 | 9801 ft | 370 kts | 88° |
| 2026-04-27 10:03 | 8.08318 | 97.68870 | 9801 ft | 370 kts | 88° |
| 2026-04-27 10:03 | 8.08446 | 97.71427 | 9801 ft | 370 kts | 88° |
| 2026-04-27 10:04 | 8.08517 | 97.74020 | 9800 ft | 369 kts | 93° |
| 2026-04-27 10:04 | 8.08117 | 97.76578 | 9798 ft | 369 kts | 106° |
| 2026-04-27 10:04 | 8.07059 | 97.78931 | 9797 ft | 369 kts | 123° |
| 2026-04-27 10:04 | 8.05329 | 97.80839 | 9799 ft | 371 kts | 141° |
| 2026-04-27 10:05 | 8.03068 | 97.82085 | 9802 ft | 373 kts | 158° |
| 2026-04-27 10:05 | 8.00595 | 97.82898 | 9800 ft | 374 kts | 162° |
| 2026-04-27 10:05 | 7.98093 | 97.83622 | 9798 ft | 374 kts | 162° |
| 2026-04-27 10:05 | 7.95588 | 97.84343 | 9798 ft | 374 kts | 162° |
| 2026-04-27 10:06 | 7.93144 | 97.85211 | 9799 ft | 372 kts | 153° |
| 2026-04-27 10:06 | 7.91047 | 97.86707 | 9610 ft | 368 kts | 133° |
| 2026-04-27 10:06 | 7.89657 | 97.88813 | 9338 ft | 367 kts | 112° |
| 2026-04-27 10:06 | 7.89099 | 97.91303 | 9057 ft | 366 kts | 92° |
| 2026-04-27 10:07 | 7.89451 | 97.93830 | 8783 ft | 366 kts | 73° |
| 2026-04-27 10:07 | 7.90443 | 97.96191 | 8517 ft | 365 kts | 65° |
| 2026-04-27 10:07 | 7.91577 | 97.98483 | 8247 ft | 363 kts | 64° |
| 2026-04-27 10:07 | 7.92679 | 98.00679 | 7972 ft | 337 kts | 64° |
| 2026-04-27 10:08 | 7.93697 | 98.02720 | 7700 ft | 315 kts | 65° |
| 2026-04-27 10:08 | 7.94643 | 98.04635 | 7428 ft | 296 kts | 65° |
| 2026-04-27 10:08 | 7.95530 | 98.06442 | 7147 ft | 280 kts | 65° |
| 2026-04-27 10:08 | 7.96374 | 98.08170 | 6897 ft | 266 kts | 65° |
| 2026-04-27 10:09 | 7.97167 | 98.09798 | 6791 ft | 252 kts | 65° |
| 2026-04-27 10:09 | 7.97934 | 98.11376 | 6784 ft | 251 kts | 65° |
| 2026-04-27 10:09 | 7.98692 | 98.12938 | 6783 ft | 251 kts | 66° |
| 2026-04-27 10:09 | 7.99371 | 98.14557 | 6779 ft | 250 kts | 73° |
| 2026-04-27 10:10 | 7.99764 | 98.16263 | 6782 ft | 249 kts | 82° |
| 2026-04-27 10:10 | 7.99965 | 98.17999 | 6781 ft | 249 kts | 85° |
| 2026-04-27 10:10 | 8.00125 | 98.19740 | 6776 ft | 249 kts | 85° |
| 2026-04-27 10:10 | 8.00282 | 98.21484 | 6777 ft | 250 kts | 85° |
| 2026-04-27 10:11 | 8.00441 | 98.23228 | 6776 ft | 250 kts | 85° |
| 2026-04-27 10:11 | 8.00602 | 98.24977 | 6777 ft | 250 kts | 85° |
| 2026-04-27 10:11 | 8.00764 | 98.26721 | 6774 ft | 250 kts | 85° |
| 2026-04-27 10:11 | 8.00925 | 98.28442 | 6791 ft | 248 kts | 85° |
| 2026-04-27 10:12 | 8.01088 | 98.30170 | 6787 ft | 248 kts | 85° |
| 2026-04-27 10:12 | 8.01333 | 98.31898 | 6777 ft | 250 kts | 79° |
| 2026-04-27 10:12 | 8.01797 | 98.33586 | 6776 ft | 250 kts | 71° |
| 2026-04-27 10:12 | 8.02420 | 98.35225 | 6771 ft | 250 kts | 73° |
| 2026-04-27 10:13 | 8.02719 | 98.36954 | 6730 ft | 250 kts | 84° |
| 2026-04-27 10:13 | 8.02854 | 98.38696 | 6471 ft | 249 kts | 85° |
| 2026-04-27 10:13 | 8.02973 | 98.40435 | 6203 ft | 248 kts | 85° |
| 2026-04-27 10:13 | 8.03083 | 98.42165 | 5909 ft | 247 kts | 85° |
| 2026-04-27 10:14 | 8.03194 | 98.43889 | 5624 ft | 245 kts | 85° |
| 2026-04-27 10:14 | 8.03302 | 98.45603 | 5340 ft | 244 kts | 85° |
| 2026-04-27 10:14 | 8.03415 | 98.47310 | 5046 ft | 243 kts | 85° |
| 2026-04-27 10:14 | 8.03533 | 98.49006 | 4768 ft | 241 kts | 85° |
| 2026-04-27 10:15 | 8.03647 | 98.50653 | 4438 ft | 230 kts | 85° |
| 2026-04-27 10:15 | 8.04066 | 98.52155 | 4090 ft | 221 kts | 60° |
| 2026-04-27 10:15 | 8.05092 | 98.53258 | 3830 ft | 212 kts | 41° |
| 2026-04-27 10:15 | 8.06351 | 98.54019 | 3791 ft | 214 kts | 19° |
| 2026-04-27 10:16 | 8.07834 | 98.54167 | 3795 ft | 216 kts | 2° |
| 2026-04-27 10:16 | 8.09345 | 98.54021 | 3789 ft | 218 kts | 355° |
| 2026-04-27 10:16 | 8.10852 | 98.53805 | 3782 ft | 219 kts | 354° |
| 2026-04-27 10:16 | 8.12263 | 98.53238 | 3776 ft | 225 kts | 321° |
| 2026-04-27 10:17 | 8.13014 | 98.51890 | 3729 ft | 229 kts | 281° |
| 2026-04-27 10:17 | 8.12886 | 98.50283 | 3502 ft | 228 kts | 258° |
| 2026-04-27 10:17 | 8.12604 | 98.48712 | 3195 ft | 224 kts | 262° |
| 2026-04-27 10:17 | 8.12473 | 98.47204 | 2874 ft | 214 kts | 266° |
| 2026-04-27 10:18 | 8.12384 | 98.45735 | 2580 ft | 205 kts | 265° |
| 2026-04-27 10:18 | 8.12283 | 98.44331 | 2302 ft | 197 kts | 264° |
| 2026-04-27 10:18 | 8.12189 | 98.42985 | 2043 ft | 187 kts | 263° |
| 2026-04-27 10:18 | 8.12099 | 98.41695 | 1791 ft | 181 kts | 263° |
| 2026-04-27 10:19 | 8.12013 | 98.40447 | 1549 ft | 173 kts | 263° |
| 2026-04-27 10:19 | 8.11933 | 98.39297 | 1319 ft | 157 kts | 264° |
| 2026-04-27 10:19 | 8.11860 | 98.38237 | 1104 ft | 146 kts | 263° |
| 2026-04-27 10:19 | 8.11788 | 98.37220 | 924 ft | 146 kts | 265° |
| 2026-04-27 10:20 | 8.11718 | 98.36209 | 751 ft | 141 kts | 266° |
| 2026-04-27 10:20 | 8.11651 | 98.35237 | 571 ft | 137 kts | 264° |
| 2026-04-27 10:20 | 8.11584 | 98.34284 | 382 ft | 135 kts | 266° |
| 2026-04-27 10:20 | 8.11510 | 98.33339 | 198 ft | 135 kts | 263° |
| 2026-04-27 10:21 | 8.11388 | 98.32402 | 51 ft | 132 kts | 264° |
| 2026-04-27 10:21 | 8.11311 | 98.31599 | 31 ft | 99 kts | 266° |
| 2026-04-27 10:21 | 8.11272 | 98.31140 | 18 ft | 53 kts | 264° |
| 2026-04-27 10:21 | 8.11246 | 98.30888 | 11 ft | 32 kts | 265° |
| 2026-04-27 10:22 | 8.11226 | 98.30649 | 5 ft | 36 kts | 265° |
| 2026-04-27 10:22 | 8.11207 | 98.30446 | 2 ft | 20 kts | 264° |
| 2026-04-27 10:22 | 8.11174 | 98.30342 | 1 ft | 13 kts | 194° |
| 2026-04-27 10:22 | 8.11087 | 98.30355 | 0 ft | 14 kts | 180° |
| 2026-04-27 10:23 | 8.11031 | 98.30369 | 1 ft | 6 kts | 136° |
| 2026-04-27 10:23 | 8.11027 | 98.30382 | 1 ft | 0 kts | 93° |
| 2026-04-27 10:24 | 8.11026 | 98.30396 | 1 ft | 11 kts | 93° |
| 2026-04-27 10:25 | 8.10998 | 98.30460 | 3 ft | 10 kts | 166° |
| 2026-04-27 10:25 | 8.10928 | 98.30453 | 2 ft | 7 kts | 172° |
| 2026-04-27 10:25 | 8.10913 | 98.30488 | 3 ft | 7 kts | 90° |
| 2026-04-27 10:25 | 8.10902 | 98.30550 | 5 ft | 10 kts | 106° |
| 2026-04-27 10:26 | 8.10900 | 98.30555 | 5 ft | 0 kts | 106° |